Time;durP1;ratioP1;P1;durP2;ratioP2;P2;SDS_P1;SDS_P2;PMS_P1;PMS_P2;Temp;Humidity;BMP_temperature;BMP_pressure;BME280_temperature;BME280_humidity;BME280_pressure;Samples;Min_cycle;Max_cycle;Signal;HPM_P1;HPM_P2
2022/04/12 00:02:38;;;;;;;2.58;1.35;;;17.50;43.00;16.50;100983.00;;;;6212546;23;20017;-68
2022/04/12 00:05:24;;;;;;;2.78;1.30;;;17.50;42.40;16.50;100983.00;;;;6211175;23;20049;-67
2022/04/12 00:08:10;;;;;;;2.30;1.08;;;17.50;42.30;16.50;100980.00;;;;6212335;23;20020;-68
2022/04/12 00:10:57;;;;;;;2.38;1.10;;;17.50;42.30;16.50;100975.00;;;;6211443;23;20115;-68
2022/04/12 00:13:43;;;;;;;2.22;1.27;;;17.50;42.30;16.50;100976.00;;;;6211648;23;20017;-67
2022/04/12 00:16:29;;;;;;;1.77;1.30;;;17.60;42.40;16.50;100967.00;;;;6211738;23;20036;-68
2022/04/12 00:19:15;;;;;;;2.22;1.33;;;17.50;42.30;16.50;100963.00;;;;6212143;23;20020;-68
2022/04/12 00:22:01;;;;;;;1.55;1.10;;;17.50;42.30;16.50;100962.00;;;;6212159;23;20079;-68
2022/04/12 00:24:47;;;;;;;2.15;1.13;;;17.50;42.30;16.50;100971.00;;;;6212082;23;20016;-68
2022/04/12 00:27:33;;;;;;;1.48;1.13;;;17.50;42.30;16.50;100966.00;;;;6212410;23;20020;-68
2022/04/12 00:30:19;;;;;;;2.95;1.20;;;17.50;42.30;16.50;100962.00;;;;6212316;23;20013;-68
2022/04/12 00:33:05;;;;;;;2.65;1.08;;;17.50;42.30;16.60;100967.00;;;;6210747;23;20039;-68
2022/04/12 00:35:53;;;;;;;1.20;1.08;;;17.50;42.20;16.60;100956.00;;;;6211736;23;20013;-68
2022/04/12 00:38:40;;;;;;;1.27;0.88;;;17.50;42.20;16.60;100959.00;;;;6212801;23;20036;-68
2022/04/12 00:41:35;;;;;;;1.30;1.08;;;17.50;42.30;16.60;100952.00;;;;6211325;23;20016;-67
2022/04/12 00:44:21;;;;;;;2.47;1.20;;;17.50;42.30;16.50;100947.00;;;;6211995;23;20017;-68
2022/04/12 00:47:07;;;;;;;5.22;1.10;;;17.50;42.30;16.50;100943.00;;;;6212420;23;20012;-68
2022/04/12 00:49:53;;;;;;;2.60;1.30;;;17.50;42.90;16.50;100932.00;;;;6209740;23;20075;-68
2022/04/12 00:52:48;;;;;;;1.20;1.00;;;17.50;42.20;16.50;100934.00;;;;6212293;23;20043;-67
2022/04/12 00:55:34;;;;;;;1.38;1.10;;;17.50;42.20;16.60;100928.00;;;;6212500;23;20675;-68
2022/04/12 00:58:20;;;;;;;1.45;1.25;;;17.50;42.20;16.60;100929.00;;;;6212272;23;20102;-68
2022/04/12 01:01:06;;;;;;;1.02;0.75;;;17.50;42.10;16.50;100934.00;;;;6210727;23;20028;-67
2022/04/12 01:03:52;;;;;;;1.30;0.95;;;17.50;42.10;16.60;100936.00;;;;6212769;23;20038;-67
2022/04/12 01:06:38;;;;;;;1.45;1.20;;;17.50;42.10;16.60;100928.00;;;;6211864;23;20016;-67
2022/04/12 01:09:27;;;;;;;2.30;1.17;;;17.50;42.10;16.60;100924.00;;;;6210737;23;20027;-67
2022/04/12 01:12:18;;;;;;;1.20;1.08;;;17.50;42.10;16.60;100924.00;;;;6211621;23;20126;-68
2022/04/12 01:15:15;;;;;;;2.10;0.98;;;17.50;42.10;16.60;100930.00;;;;6211799;23;20832;-68
2022/04/12 01:18:01;;;;;;;1.80;1.02;;;17.50;42.00;16.60;100933.00;;;;6189658;23;20094;-68
2022/04/12 01:20:47;;;;;;;1.98;1.20;;;17.50;42.00;16.60;100922.00;;;;6211802;23;20459;-67
2022/04/12 01:23:43;;;;;;;1.30;0.93;;;17.50;42.00;16.60;100922.00;;;;6212470;23;20055;-67
2022/04/12 01:26:29;;;;;;;1.13;1.00;;;17.50;42.00;16.60;100911.00;;;;6214247;23;20107;-67
2022/04/12 01:29:16;;;;;;;3.53;1.30;;;17.50;42.00;16.60;100903.00;;;;6213899;23;20091;-68
2022/04/12 01:32:07;;;;;;;0.68;0.68;;;17.50;42.00;16.60;100897.00;;;;6210968;23;20466;-67
2022/04/12 01:34:53;;;;;;;1.63;1.02;;;17.50;41.90;16.60;100905.00;;;;6213515;23;20059;-67
2022/04/12 01:37:39;;;;;;;1.80;1.15;;;17.50;41.90;16.60;100899.00;;;;6213842;23;20308;-67
2022/04/12 01:40:25;;;;;;;1.20;0.90;;;17.60;41.90;16.60;100895.00;;;;6212586;23;20020;-67
2022/04/12 01:43:11;;;;;;;1.92;1.20;;;17.50;41.90;16.60;100901.00;;;;6213585;23;20430;-67
2022/04/12 01:45:57;;;;;;;1.20;1.08;;;17.50;41.90;16.60;100899.00;;;;6213674;23;20148;-67
2022/04/12 01:48:44;;;;;;;1.33;1.10;;;17.60;41.90;16.60;100904.00;;;;6213880;23;20036;-67
2022/04/12 01:51:31;;;;;;;1.47;1.10;;;17.50;41.90;16.60;100903.00;;;;6211767;23;20028;-68
2022/04/12 01:54:17;;;;;;;2.00;1.23;;;17.50;41.90;16.60;100912.00;;;;6212437;23;20035;-67
2022/04/12 01:57:03;;;;;;;1.80;1.00;;;17.50;41.90;16.60;100903.00;;;;6213171;23;20028;-68
2022/04/12 01:59:49;;;;;;;1.20;1.00;;;17.50;41.90;16.60;100899.00;;;;6214164;23;20017;-67
2022/04/12 02:02:35;;;;;;;1.55;1.00;;;17.50;41.90;16.60;100895.00;;;;6213606;23;20021;-67
2022/04/12 02:05:22;;;;;;;1.42;1.15;;;17.50;41.90;16.60;100901.00;;;;6213048;23;20462;-67
2022/04/12 02:08:08;;;;;;;1.88;1.17;;;17.40;41.80;16.60;100895.00;;;;6213543;23;20397;-67
2022/04/12 02:10:54;;;;;;;2.10;1.00;;;17.50;41.80;16.60;100898.00;;;;6213023;23;20016;-67
2022/04/12 02:13:40;;;;;;;2.05;1.10;;;17.50;41.80;16.60;100895.00;;;;6213214;23;20016;-68
2022/04/12 02:16:26;;;;;;;3.45;1.50;;;17.50;41.80;16.60;100892.00;;;;6210437;23;20023;-68
2022/04/12 02:19:12;;;;;;;1.95;1.40;;;17.50;41.80;16.60;100888.00;;;;6213653;23;20016;-68
2022/04/12 02:21:58;;;;;;;1.88;1.33;;;17.50;41.80;16.60;100886.00;;;;6212582;23;20396;-68
2022/04/12 02:24:44;;;;;;;1.67;1.00;;;17.50;41.70;16.60;100882.00;;;;6212092;23;20016;-67
2022/04/12 02:27:30;;;;;;;1.52;1.15;;;17.50;41.80;16.60;100870.00;;;;6213263;23;20020;-68
2022/04/12 02:30:16;;;;;;;2.15;1.23;;;17.50;41.80;16.60;100871.00;;;;6211031;23;20018;-67
2022/04/12 02:33:02;;;;;;;2.30;1.20;;;17.50;41.80;16.60;100878.00;;;;6213499;23;20062;-67
2022/04/12 02:35:49;;;;;;;2.70;1.15;;;17.50;41.80;16.60;100882.00;;;;6213593;23;20500;-68
2022/04/12 02:38:35;;;;;;;2.80;1.15;;;17.50;41.80;16.60;100885.00;;;;6212620;23;20051;-68
2022/04/12 02:41:21;;;;;;;3.10;1.08;;;17.50;41.80;16.60;100884.00;;;;6212357;23;20031;-68
2022/04/12 02:44:07;;;;;;;2.95;1.30;;;17.60;41.90;16.60;100885.00;;;;6213104;23;20427;-68
2022/04/12 02:46:53;;;;;;;2.80;1.20;;;17.50;41.80;16.60;100886.00;;;;6212939;23;20042;-67
2022/04/12 02:49:39;;;;;;;2.05;1.40;;;17.50;41.80;16.60;100879.00;;;;6212796;23;20308;-68
2022/04/12 02:52:25;;;;;;;1.45;1.10;;;17.50;41.80;16.60;100870.00;;;;6212806;23;20020;-68
2022/04/12 02:55:11;;;;;;;3.28;1.38;;;17.50;41.90;16.60;100865.00;;;;6212939;23;20047;-68
2022/04/12 02:57:57;;;;;;;2.63;1.73;;;17.40;41.80;16.60;100870.00;;;;6211773;23;20023;-68
2022/04/12 03:00:44;;;;;;;1.42;1.15;;;17.50;41.80;16.60;100864.00;;;;6212650;23;20017;-68
2022/04/12 03:03:30;;;;;;;1.67;1.20;;;17.50;41.80;16.60;100869.00;;;;6212124;23;20031;-67
2022/04/12 03:06:16;;;;;;;2.40;1.42;;;17.50;41.80;16.60;100861.00;;;;6212633;23;20012;-67
2022/04/12 03:09:02;;;;;;;3.15;1.30;;;17.50;41.80;16.60;100855.00;;;;6213282;23;20075;-68
2022/04/12 03:11:48;;;;;;;1.63;1.08;;;17.50;41.70;16.60;100859.00;;;;6190708;23;20020;-68
2022/04/12 03:14:34;;;;;;;1.98;1.27;;;17.50;41.70;16.60;100863.00;;;;6212487;23;20439;-67
2022/04/12 03:17:21;;;;;;;2.60;1.25;;;17.50;41.70;16.60;100859.00;;;;6212729;23;20028;-67
2022/04/12 03:20:07;;;;;;;1.92;1.30;;;17.50;41.70;16.60;100865.00;;;;6212614;23;20023;-67
2022/04/12 03:22:53;;;;;;;1.80;1.17;;;17.50;41.70;16.60;100870.00;;;;6213300;23;20442;-68
2022/04/12 03:25:40;;;;;;;2.15;1.65;;;17.50;41.60;16.60;100853.00;;;;6212803;23;20020;-67
2022/04/12 03:28:26;;;;;;;1.50;1.38;;;17.50;41.60;16.60;100850.00;;;;6212220;23;20138;-68
2022/04/12 03:31:12;;;;;;;1.98;1.52;;;17.50;41.70;16.60;100851.00;;;;6211949;23;20450;-68
2022/04/12 03:33:58;;;;;;;2.00;1.60;;;17.50;41.60;16.60;100852.00;;;;6213034;23;20020;-68
2022/04/12 03:36:44;;;;;;;1.83;1.52;;;17.50;41.60;16.60;100847.00;;;;6212387;23;20021;-68
2022/04/12 03:39:30;;;;;;;2.85;1.45;;;17.50;41.60;16.60;100844.00;;;;6212354;23;20020;-67
2022/04/12 03:42:18;;;;;;;3.63;1.55;;;17.50;41.60;16.60;100845.00;;;;6211729;23;20016;-68
2022/04/12 03:45:05;;;;;;;3.75;1.40;;;17.50;41.60;16.60;100837.00;;;;6211362;23;20016;-68
2022/04/12 03:47:51;;;;;;;2.30;1.58;;;17.50;41.60;16.60;100829.00;;;;6213199;23;20074;-68
2022/04/12 03:50:37;;;;;;;3.20;1.67;;;17.50;41.60;16.60;100843.00;;;;6212334;23;20047;-67
2022/04/12 03:53:23;;;;;;;2.65;1.58;;;17.50;41.60;16.60;100846.00;;;;6211941;23;20228;-68
2022/04/12 03:56:09;;;;;;;2.67;1.60;;;17.50;41.60;16.60;100838.00;;;;6212375;23;20017;-68
2022/04/12 03:58:58;;;;;;;2.67;1.50;;;17.50;41.60;16.50;100838.00;;;;6211972;23;20024;-68
2022/04/12 04:01:44;;;;;;;2.17;1.45;;;17.50;41.60;16.60;100838.00;;;;6211849;23;20027;-67
2022/04/12 04:04:30;;;;;;;2.08;1.55;;;17.50;41.60;16.50;100824.00;;;;6210203;23;20044;-67
2022/04/12 04:07:16;;;;;;;2.17;1.40;;;17.50;41.60;16.60;100831.00;;;;6210495;23;20012;-68
2022/04/12 04:10:03;;;;;;;2.47;1.40;;;17.50;41.60;16.60;100824.00;;;;6212238;23;20015;-68
2022/04/12 04:12:49;;;;;;;3.13;1.80;;;17.50;41.60;16.60;100828.00;;;;6210835;23;20385;-68
2022/04/12 04:15:36;;;;;;;2.40;1.50;;;17.50;41.50;16.50;100830.00;;;;6212563;23;20020;-68
2022/04/12 04:18:22;;;;;;;2.33;1.30;;;17.50;41.50;16.60;100826.00;;;;6212036;23;20021;-68
2022/04/12 04:21:08;;;;;;;1.85;1.33;;;17.50;41.60;16.50;100822.00;;;;6211442;23;20027;-68
2022/04/12 04:23:54;;;;;;;2.10;1.55;;;17.50;41.60;16.60;100819.00;;;;6212723;23;20013;-67
2022/04/12 04:26:42;;;;;;;2.00;1.52;;;17.50;41.50;16.60;100822.00;;;;6210906;23;20024;-67
2022/04/12 04:29:33;;;;;;;1.85;1.30;;;17.50;41.60;16.60;100832.00;;;;6211216;23;20016;-68
2022/04/12 04:32:19;;;;;;;3.03;1.52;;;17.50;41.60;16.60;100829.00;;;;6212048;23;20027;-68
2022/04/12 04:35:05;;;;;;;3.53;1.60;;;17.50;41.50;16.50;100825.00;;;;6211909;23;20090;-68
2022/04/12 04:37:51;;;;;;;2.33;1.50;;;17.50;41.60;16.50;100815.00;;;;6210291;23;20028;-67
2022/04/12 04:40:37;;;;;;;2.08;1.50;;;17.40;41.60;16.60;100811.00;;;;6211599;23;20013;-68
2022/04/12 04:43:23;;;;;;;2.85;1.50;;;17.50;41.60;16.60;100815.00;;;;6210344;23;20008;-68
2022/04/12 04:46:10;;;;;;;2.70;1.63;;;17.50;41.60;16.50;100828.00;;;;6211979;23;20694;-67
2022/04/12 04:48:56;;;;;;;2.78;1.58;;;17.40;41.50;16.50;100833.00;;;;6212576;23;20322;-68
2022/04/12 04:51:42;;;;;;;1.67;1.27;;;17.50;41.60;16.50;100824.00;;;;6210807;23;20027;-68
2022/04/12 04:54:28;;;;;;;1.60;1.38;;;17.50;41.60;16.60;100822.00;;;;6211900;23;20442;-68
2022/04/12 04:57:14;;;;;;;3.17;1.40;;;17.50;41.60;16.50;100826.00;;;;6212096;23;20051;-68
2022/04/12 05:00:04;;;;;;;3.20;1.55;;;17.40;41.60;16.50;100823.00;;;;6213359;23;20104;-68
2022/04/12 05:02:52;;;;;;;2.67;1.58;;;17.40;41.50;16.50;100822.00;;;;6214871;23;20466;-68
2022/04/12 05:05:38;;;;;;;2.13;1.55;;;17.50;41.60;16.50;100829.00;;;;6213914;23;20016;-68
2022/04/12 05:08:24;;;;;;;3.65;1.88;;;17.40;41.50;16.50;100817.00;;;;6211811;23;20019;-68
2022/04/12 05:11:10;;;;;;;2.03;1.55;;;17.40;41.50;16.50;100821.00;;;;6213016;23;20021;-68
2022/04/12 05:13:56;;;;;;;2.13;1.40;;;17.40;41.50;16.50;100823.00;;;;6214353;23;20016;-67
2022/04/12 05:16:42;;;;;;;3.10;1.48;;;17.50;41.50;16.50;100828.00;;;;6212481;23;20021;-68
2022/04/12 05:19:28;;;;;;;2.50;1.70;;;17.50;41.50;16.50;100831.00;;;;6211429;23;20339;-67
2022/04/12 05:22:14;;;;;;;2.20;1.42;;;17.40;41.40;16.50;100828.00;;;;6213162;23;20020;-67
2022/04/12 05:25:00;;;;;;;2.13;1.48;;;17.50;41.40;16.50;100833.00;;;;6213130;23;20020;-68
2022/04/12 05:27:46;;;;;;;2.03;1.23;;;17.40;41.40;16.50;100826.00;;;;6213891;23;20020;-67
2022/04/12 05:30:33;;;;;;;2.08;1.55;;;17.40;41.40;16.50;100832.00;;;;6211221;23;20013;-68
2022/04/12 05:33:19;;;;;;;2.20;1.42;;;17.40;41.40;16.50;100846.00;;;;6214612;23;20017;-67
2022/04/12 05:36:06;;;;;;;3.03;1.55;;;17.40;41.50;16.60;100847.00;;;;6212489;23;20016;-67
2022/04/12 05:38:52;;;;;;;3.92;1.70;;;17.50;41.40;16.50;100858.00;;;;6212760;23;20069;-68
2022/04/12 05:41:38;;;;;;;2.08;1.33;;;17.40;41.40;16.60;100854.00;;;;6212068;23;20023;-68
2022/04/12 05:44:24;;;;;;;2.05;1.67;;;17.50;41.50;16.60;100855.00;;;;6211404;23;20020;-67
2022/04/12 05:47:10;;;;;;;2.75;1.45;;;17.40;41.40;16.60;100859.00;;;;6212158;23;20016;-68
2022/04/12 05:49:56;;;;;;;3.15;1.80;;;17.50;41.50;16.50;100849.00;;;;6211452;23;20434;-68
2022/04/12 05:52:43;;;;;;;2.22;1.38;;;17.50;41.50;16.50;100852.00;;;;6212188;23;20017;-68
2022/04/12 05:55:29;;;;;;;2.25;1.63;;;17.40;41.50;16.60;100860.00;;;;6209500;23;20435;-68
2022/04/12 05:58:15;;;;;;;2.95;1.77;;;17.50;41.50;16.50;100856.00;;;;6211445;23;20028;-68
2022/04/12 06:01:02;;;;;;;3.40;1.73;;;17.40;41.40;16.50;100858.00;;;;6211519;23;20020;-68
2022/04/12 06:03:48;;;;;;;3.67;1.73;;;17.40;41.40;16.50;100863.00;;;;6214074;23;20012;-68
2022/04/12 06:06:34;;;;;;;1.60;1.35;;;17.50;41.40;16.60;100851.00;;;;6213087;23;20512;-68
2022/04/12 06:09:20;;;;;;;3.10;1.92;;;17.40;41.40;16.60;100854.00;;;;6212229;23;20357;-68
2022/04/12 06:12:07;;;;;;;2.78;1.70;;;17.40;41.40;16.60;100850.00;;;;6212757;23;20027;-67
2022/04/12 06:14:54;;;;;;;1.98;1.55;;;17.50;41.40;16.50;100853.00;;;;6213687;23;20072;-68
2022/04/12 06:17:40;;;;;;;2.78;1.48;;;17.50;41.30;16.60;100858.00;;;;6212391;23;20039;-68
2022/04/12 06:20:26;;;;;;;1.98;1.60;;;17.50;41.30;16.60;100867.00;;;;6211666;23;20017;-67
2022/04/12 06:23:12;;;;;;;2.13;1.52;;;17.50;41.30;16.60;100864.00;;;;6211087;23;20017;-67
2022/04/12 06:25:58;;;;;;;3.00;1.83;;;17.50;41.30;16.60;100867.00;;;;6212718;23;20334;-67
2022/04/12 06:28:44;;;;;;;2.25;1.73;;;17.50;41.30;16.60;100878.00;;;;6213475;23;20020;-68
2022/04/12 06:31:31;;;;;;;2.33;1.20;;;17.50;41.40;16.60;100861.00;;;;6212017;23;20032;-68
2022/04/12 06:34:17;;;;;;;1.98;1.23;;;17.50;41.40;16.60;100852.00;;;;6212886;23;20024;-67
2022/04/12 06:37:03;;;;;;;2.05;1.75;;;17.50;41.30;16.60;100850.00;;;;6212464;23;20020;-68
2022/04/12 06:39:49;;;;;;;1.80;1.38;;;17.50;41.40;16.60;100854.00;;;;6211995;23;20038;-68
2022/04/12 06:42:35;;;;;;;2.75;1.70;;;17.50;41.40;16.60;100849.00;;;;6212978;23;20370;-67
2022/04/12 06:45:22;;;;;;;3.45;1.67;;;17.50;41.40;16.60;100854.00;;;;6190976;23;20023;-68
2022/04/12 06:48:08;;;;;;;3.50;1.63;;;17.50;41.30;16.60;100852.00;;;;6211484;23;20484;-68
2022/04/12 06:50:54;;;;;;;2.10;1.33;;;17.50;41.30;16.60;100859.00;;;;6210225;23;20021;-68
2022/04/12 06:53:40;;;;;;;5.15;1.75;;;17.50;41.40;16.60;100871.00;;;;6213050;23;20470;-67
2022/04/12 06:56:27;;;;;;;1.83;1.50;;;17.50;41.40;16.60;100868.00;;;;6212358;23;20024;-68
2022/04/12 06:59:15;;;;;;;2.60;1.90;;;17.50;41.40;16.60;100873.00;;;;6212767;23;20409;-68
2022/04/12 07:02:01;;;;;;;2.33;1.38;;;17.50;41.40;16.60;100882.00;;;;6211999;23;20112;-68
2022/04/12 07:04:47;;;;;;;2.25;1.58;;;17.50;41.40;16.60;100882.00;;;;6190357;23;20067;-67
2022/04/12 07:07:37;;;;;;;1.90;1.35;;;17.50;41.40;16.60;100871.00;;;;6212247;23;20469;-68
2022/04/12 07:10:23;;;;;;;2.92;1.45;;;17.50;41.40;16.60;100877.00;;;;6212184;23;20422;-68
2022/04/12 07:13:09;;;;;;;1.90;1.50;;;17.50;41.40;16.60;100866.00;;;;6211427;23;20013;-68
2022/04/12 07:15:55;;;;;;;2.95;1.50;;;17.50;41.40;16.60;100863.00;;;;6212809;23;20584;-68
2022/04/12 07:18:41;;;;;;;1.95;1.63;;;17.50;41.40;16.60;100852.00;;;;6212769;23;20019;-68
2022/04/12 07:21:29;;;;;;;2.08;1.63;;;17.50;41.40;16.60;100858.00;;;;6211550;23;20017;-68
2022/04/12 07:24:15;;;;;;;2.63;1.52;;;17.50;41.40;16.60;100854.00;;;;6211151;23;20087;-68
2022/04/12 07:27:01;;;;;;;3.38;1.73;;;17.50;41.40;16.60;100852.00;;;;6190436;23;20020;-68
2022/04/12 07:29:47;;;;;;;1.75;1.25;;;17.50;42.10;16.60;100855.00;;;;6212172;23;20026;-68
2022/04/12 07:32:33;;;;;;;1.60;1.27;;;17.60;41.50;16.60;100859.00;;;;6211303;23;20017;-68
2022/04/12 07:35:19;;;;;;;2.13;1.45;;;17.50;41.50;16.60;100845.00;;;;6209232;23;20087;-68
2022/04/12 07:38:05;;;;;;;1.88;1.30;;;17.50;41.40;16.60;100836.00;;;;6211987;23;20016;-68
2022/04/12 07:40:53;;;;;;;2.67;1.38;;;17.60;41.50;16.60;100833.00;;;;6211050;23;20021;-67
2022/04/12 07:43:39;;;;;;;3.05;1.63;;;17.50;41.40;16.60;100830.00;;;;6212854;23;20070;-68
2022/04/12 07:46:25;;;;;;;4.32;1.42;;;17.60;41.50;16.60;100830.00;;;;6210769;23;20024;-68
2022/04/12 07:49:11;;;;;;;1.83;1.48;;;17.50;41.40;16.60;100828.00;;;;6211121;23;20020;-68
2022/04/12 07:51:57;;;;;;;2.55;1.80;;;17.50;41.40;16.60;100821.00;;;;6208582;23;20051;-67
2022/04/12 07:54:43;;;;;;;2.80;1.65;;;17.60;42.10;16.60;100810.00;;;;6211335;23;20024;-68
2022/04/12 07:57:29;;;;;;;2.60;1.55;;;17.60;41.40;16.60;100816.00;;;;6211405;23;20349;-67
2022/04/12 08:00:16;;;;;;;2.05;1.45;;;17.60;41.40;16.60;100823.00;;;;6211729;23;20020;-68
2022/04/12 08:03:02;;;;;;;1.80;1.48;;;17.60;41.50;16.60;100824.00;;;;6212194;23;20342;-67
2022/04/12 08:05:48;;;;;;;1.95;1.50;;;17.60;41.50;16.60;100832.00;;;;6212102;23;20020;-67
2022/04/12 08:08:35;;;;;;;2.85;1.58;;;17.60;41.50;16.60;100837.00;;;;6210461;23;20012;-67
2022/04/12 08:11:21;;;;;;;2.83;1.73;;;17.60;41.50;16.60;100851.00;;;;6211380;23;20088;-67
2022/04/12 08:14:07;;;;;;;1.83;1.27;;;17.60;41.60;16.60;100850.00;;;;6211722;23;20016;-67
2022/04/12 08:16:53;;;;;;;2.60;1.52;;;17.60;41.60;16.60;100856.00;;;;6210101;23;20021;-68
2022/04/12 08:19:39;;;;;;;1.92;1.30;;;17.50;41.60;16.60;100863.00;;;;6212109;23;20020;-67
2022/04/12 08:22:25;;;;;;;2.25;1.50;;;17.60;41.70;16.60;100860.00;;;;6209266;23;20020;-68
2022/04/12 08:25:11;;;;;;;3.50;1.42;;;17.60;41.70;16.60;100850.00;;;;6211526;23;20016;-68
2022/04/12 08:27:58;;;;;;;2.15;1.25;;;17.60;41.70;16.60;100850.00;;;;6211489;23;20016;-68
2022/04/12 08:30:44;;;;;;;1.98;1.50;;;17.60;41.80;16.60;100832.00;;;;6210424;23;20313;-68
2022/04/12 08:33:30;;;;;;;2.40;1.83;;;17.60;41.70;16.60;100828.00;;;;6213366;23;20012;-68
2022/04/12 08:36:16;;;;;;;2.42;1.60;;;17.60;41.70;16.60;100825.00;;;;6213638;23;20009;-68
2022/04/12 08:39:03;;;;;;;7.72;2.00;;;17.60;41.80;16.60;100839.00;;;;6214796;23;20027;-68
2022/04/12 08:41:50;;;;;;;17.35;3.35;;;17.60;41.80;16.60;100833.00;;;;6212861;23;20017;-68
2022/04/12 08:44:37;;;;;;;11.18;3.05;;;17.60;41.80;16.60;100822.00;;;;6190871;23;20017;-68
2022/04/12 08:47:23;;;;;;;22.08;3.22;;;17.60;41.80;16.60;100821.00;;;;6213455;23;20020;-68
2022/04/12 08:50:10;;;;;;;12.93;2.97;;;17.60;41.90;16.60;100827.00;;;;6191060;23;20370;-68
2022/04/12 08:52:56;;;;;;;14.63;2.60;;;17.60;41.90;16.60;100822.00;;;;6189353;23;20068;-68
2022/04/12 08:55:42;;;;;;;19.33;3.85;;;17.60;41.90;16.60;100814.00;;;;6211429;23;20016;-68
2022/04/12 08:58:28;;;;;;;11.20;2.80;;;17.60;41.90;16.60;100802.00;;;;6193014;23;20024;-67
2022/04/12 09:01:15;;;;;;;11.05;2.28;;;17.60;41.90;16.70;100802.00;;;;6212841;23;20028;-68
2022/04/12 09:04:01;;;;;;;18.23;3.17;;;17.70;41.90;16.60;100805.00;;;;6213660;23;20123;-67
2022/04/12 09:06:57;;;;;;;10.25;2.78;;;17.60;41.90;16.60;100797.00;;;;6213698;23;20505;-68
2022/04/12 09:09:43;;;;;;;14.93;2.38;;;17.60;41.90;16.70;100795.00;;;;6213606;23;20043;-68
2022/04/12 09:12:33;;;;;;;12.43;2.65;;;17.60;41.90;16.70;100797.00;;;;6213649;23;20440;-68
2022/04/12 09:15:22;;;;;;;11.48;2.78;;;17.60;41.90;16.70;100793.00;;;;6212660;23;20021;-68
2022/04/12 09:18:08;;;;;;;13.50;2.97;;;17.60;41.90;16.70;100793.00;;;;6191224;23;20021;-67
2022/04/12 09:20:56;;;;;;;12.98;2.80;;;17.60;42.00;16.70;100797.00;;;;6214162;23;20024;-68
2022/04/12 09:23:50;;;;;;;13.65;2.33;;;17.70;42.00;16.60;100790.00;;;;6213484;23;20023;-68
2022/04/12 09:26:36;;;;;;;8.57;2.83;;;17.60;42.00;16.70;100793.00;;;;6211221;23;20020;-68
2022/04/12 09:29:27;;;;;;;7.07;2.38;;;17.60;42.00;16.70;100793.00;;;;6213252;23;20012;-68
2022/04/12 09:32:16;;;;;;;10.27;2.60;;;17.60;42.00;16.70;100799.00;;;;6213702;23;20020;-67
2022/04/12 09:35:02;;;;;;;5.95;1.88;;;17.60;42.00;16.70;100794.00;;;;6211006;23;20374;-68
2022/04/12 09:37:48;;;;;;;3.45;2.05;;;17.60;42.10;16.70;100772.00;;;;6190579;23;20718;-68
2022/04/12 09:40:34;;;;;;;5.22;2.17;;;17.70;42.20;16.70;100776.00;;;;6210952;23;20028;-68
2022/04/12 09:43:20;;;;;;;4.30;1.65;;;17.60;42.10;16.70;100767.00;;;;6211513;23;20016;-67
2022/04/12 09:46:07;;;;;;;8.45;2.38;;;17.70;42.10;16.70;100765.00;;;;6213113;23;20016;-68
2022/04/12 09:48:53;;;;;;;7.65;2.50;;;17.70;42.20;16.70;100762.00;;;;6212296;23;20016;-67
2022/04/12 09:51:39;;;;;;;4.90;2.25;;;17.60;42.20;16.70;100758.00;;;;6212766;23;20020;-68
2022/04/12 09:54:26;;;;;;;7.18;2.90;;;17.70;42.20;16.70;100755.00;;;;6212721;23;20040;-68
2022/04/12 09:57:12;;;;;;;6.40;2.83;;;17.70;42.30;16.70;100745.00;;;;6211898;23;20072;-68
2022/04/12 09:59:58;;;;;;;5.00;2.13;;;17.70;42.20;16.70;100740.00;;;;6211012;23;20022;-68
2022/04/12 10:02:44;;;;;;;4.68;1.80;;;17.70;42.20;16.70;100744.00;;;;6190971;23;20027;-68
2022/04/12 10:05:31;;;;;;;5.20;2.22;;;17.70;42.20;16.70;100740.00;;;;6191445;23;20300;-68
2022/04/12 10:08:17;;;;;;;7.25;2.20;;;17.70;42.20;16.70;100744.00;;;;6211820;23;20012;-68
2022/04/12 10:11:03;;;;;;;3.90;2.28;;;17.70;42.20;16.70;100732.00;;;;6188261;23;20091;-68
2022/04/12 10:13:50;;;;;;;5.68;2.25;;;17.60;42.20;16.70;100733.00;;;;6168546;23;20016;-68
2022/04/12 10:16:36;;;;;;;3.97;2.00;;;17.70;42.20;16.70;100726.00;;;;6211857;23;20099;-68
2022/04/12 10:19:22;;;;;;;3.80;1.80;;;17.70;42.30;16.70;100730.00;;;;6191561;23;20430;-67
2022/04/12 10:22:08;;;;;;;5.60;2.45;;;17.70;42.30;16.70;100734.00;;;;6191609;23;20017;-68
2022/04/12 10:24:54;;;;;;;5.07;2.20;;;17.70;42.30;16.70;100724.00;;;;6190505;23;20521;-68
2022/04/12 10:27:40;;;;;;;4.47;1.90;;;17.70;42.30;16.70;100726.00;;;;6170723;23;20020;-68
2022/04/12 10:30:28;;;;;;;2.80;1.85;;;17.70;42.30;16.70;100723.00;;;;6209801;23;20316;-68
2022/04/12 10:33:24;;;;;;;4.28;1.75;;;17.70;42.30;16.70;100721.00;;;;6211895;23;20494;-68
2022/04/12 10:36:10;;;;;;;5.50;1.85;;;17.70;42.30;16.70;100707.00;;;;6209009;23;20063;-68
2022/04/12 10:38:56;;;;;;;5.07;2.10;;;17.60;42.30;16.70;100698.00;;;;6210361;23;20020;-68
2022/04/12 10:41:42;;;;;;;3.97;2.03;;;17.70;42.40;16.70;100698.00;;;;6148832;23;20016;-68
2022/04/12 10:44:37;;;;;;;4.70;2.47;;;17.70;42.40;16.70;100702.00;;;;6171407;23;20016;-68
2022/04/12 10:47:38;;;;;;;4.45;1.65;;;17.70;42.60;16.70;100705.00;;;;6171130;23;20067;-68
2022/04/12 10:50:24;;;;;;;4.43;2.15;;;17.80;42.70;16.70;100706.00;;;;6210869;23;20055;-68
2022/04/12 10:53:10;;;;;;;7.85;2.35;;;17.80;42.80;16.70;100704.00;;;;6171319;23;20021;-67
2022/04/12 10:56:02;;;;;;;4.93;2.15;;;17.80;42.70;16.70;100699.00;;;;6210742;23;20039;-68
2022/04/12 10:58:49;;;;;;;2.80;1.83;;;17.80;42.70;16.70;100707.00;;;;6190931;23;20056;-68
2022/04/12 11:01:35;;;;;;;7.07;2.67;;;17.80;42.70;16.70;100709.00;;;;6209330;23;20437;-68
2022/04/12 11:04:26;;;;;;;6.13;2.65;;;17.80;42.80;16.70;100705.00;;;;6211852;23;20020;-68
2022/04/12 11:07:35;;;;;;;4.50;2.22;;;17.80;42.90;16.70;100695.00;;;;6211399;23;20012;-68
2022/04/12 11:10:24;;;;;;;2.45;1.95;;;17.80;42.80;16.70;100707.00;;;;6211066;23;20503;-68
2022/04/12 11:13:11;;;;;;;4.15;2.47;;;17.90;42.80;16.80;100699.00;;;;6188592;23;20051;-68
2022/04/12 11:16:03;;;;;;;4.18;2.25;;;17.80;42.70;16.80;100699.00;;;;6208915;23;20016;-68
2022/04/12 11:18:50;;;;;;;4.47;2.55;;;17.90;42.80;16.80;100694.00;;;;6210096;23;20071;-68
2022/04/12 11:21:50;;;;;;;4.70;2.65;;;17.80;42.80;16.80;100702.00;;;;6205798;23;20159;-68
2022/04/12 11:24:37;;;;;;;3.72;2.42;;;17.90;43.00;16.80;100690.00;;;;6212662;23;20059;-68
2022/04/12 11:27:26;;;;;;;3.75;2.60;;;17.90;43.00;16.80;100696.00;;;;6208947;23;20066;-68
2022/04/12 11:30:15;;;;;;;4.47;2.63;;;17.90;43.00;16.80;100688.00;;;;6210452;23;20038;-68
2022/04/12 11:33:01;;;;;;;4.35;2.38;;;17.90;43.00;16.80;100692.00;;;;6209633;23;20021;-68
2022/04/12 11:35:47;;;;;;;5.85;2.50;;;17.90;42.90;16.80;100696.00;;;;6209732;23;20103;-68
2022/04/12 11:38:33;;;;;;;4.38;2.63;;;17.90;43.00;16.80;100689.00;;;;6207770;23;20024;-68
2022/04/12 11:41:19;;;;;;;3.88;2.45;;;17.90;43.10;16.80;100682.00;;;;6167688;23;20017;-69
2022/04/12 11:44:05;;;;;;;4.80;2.70;;;18.00;43.10;16.80;100686.00;;;;6209830;23;20618;-68
2022/04/12 11:47:06;;;;;;;6.22;2.60;;;17.90;42.90;16.80;100685.00;;;;6212221;23;20066;-68
2022/04/12 11:49:52;;;;;;;3.70;2.35;;;17.90;42.90;16.80;100683.00;;;;6190555;23;20490;-68
2022/04/12 11:52:38;;;;;;;5.07;3.00;;;18.00;42.90;16.80;100683.00;;;;6206787;23;20024;-68
2022/04/12 11:55:24;;;;;;;5.03;2.60;;;18.00;43.00;16.80;100692.00;;;;6208752;23;20431;-68
2022/04/12 11:58:10;;;;;;;6.38;2.83;;;18.00;43.30;16.80;100675.00;;;;6211109;23;20057;-68
2022/04/12 12:00:57;;;;;;;4.43;2.65;;;18.00;43.30;16.80;100685.00;;;;6209291;23;20016;-68
2022/04/12 12:03:43;;;;;;;6.05;2.78;;;18.00;43.20;16.80;100682.00;;;;6186384;23;20012;-68
2022/04/12 12:06:29;;;;;;;5.78;3.33;;;18.00;43.30;16.90;100673.00;;;;6208942;23;20024;-68
2022/04/12 12:09:16;;;;;;;7.18;3.45;;;18.00;43.30;16.90;100674.00;;;;6190220;23;20016;-70
2022/04/12 12:12:06;;;;;;;5.10;3.10;;;18.10;43.50;16.90;100670.00;;;;6212025;23;20020;-69
2022/04/12 12:14:52;;;;;;;5.28;3.25;;;18.00;43.60;16.80;100668.00;;;;6169330;23;20455;-70